Grover, South Dakota
Current Conditions -  °F | °C
As of 3:53 PM on Tuesday 25 Nov 2014 (Local Time) from KATY Reporting Station
Broken Clouds Broken Clouds  
Wind Chill: 25°   Ceiling: 9000
Heat Index: 32°   Visibility: 10mi
Dew Point: 24°   Wind: 8mph
Humidity: 73%   Direction: 150°SSE
Pressure: 29.85"   Gusts: NA
Location:  44.9156°N, 97.1699°W
Report Text: KATY 252153Z AUTO 15007KT 10SM FEW019 BKN090 BKN110 00/M04 A2985 RMK AO2 SLP135 T00001044
Loading
Personal Weather Stations






























Interactive Weather Map New forecast layout! Learn more

10-Day Weather Forecast

Advertisements
Track Severe Weather on mobile